sensor_id;sensor_type;location;lat;lon;timestamp;pressure;altitude;pressure_sealevel;temperature;humidity
9855;BME280;4966;48.112;9.282;2022-07-05T00:01:48;95067.97;;;15.30;100.00
9855;BME280;4966;48.112;9.282;2022-07-05T00:04:13;95062.56;;;15.18;100.00
9855;BME280;4966;48.112;9.282;2022-07-05T00:06:39;95060.84;;;15.09;100.00
9855;BME280;4966;48.112;9.282;2022-07-05T00:09:28;95064.03;;;15.12;100.00
9855;BME280;4966;48.112;9.282;2022-07-05T00:11:53;95062.31;;;15.23;100.00
9855;BME280;4966;48.112;9.282;2022-07-05T00:14:18;95056.84;;;15.23;100.00
9855;BME280;4966;48.112;9.282;2022-07-05T00:16:44;95058.16;;;15.13;100.00
9855;BME280;4966;48.112;9.282;2022-07-05T00:19:09;95045.28;;;15.14;100.00
9855;BME280;4966;48.112;9.282;2022-07-05T00:21:34;95060.06;;;15.09;100.00
9855;BME280;4966;48.112;9.282;2022-07-05T00:24:00;95063.00;;;15.20;100.00
9855;BME280;4966;48.112;9.282;2022-07-05T00:26:25;95052.84;;;15.20;100.00
9855;BME280;4966;48.112;9.282;2022-07-05T00:28:51;95058.56;;;15.31;100.00
9855;BME280;4966;48.112;9.282;2022-07-05T00:31:16;95052.94;;;15.24;100.00
9855;BME280;4966;48.112;9.282;2022-07-05T00:33:41;95046.22;;;15.21;100.00
9855;BME280;4966;48.112;9.282;2022-07-05T00:36:07;95047.97;;;15.29;100.00
9855;BME280;4966;48.112;9.282;2022-07-05T00:38:32;95046.09;;;15.34;100.00
9855;BME280;4966;48.112;9.282;2022-07-05T00:40:58;95041.97;;;15.24;99.29
9855;BME280;4966;48.112;9.282;2022-07-05T00:43:23;95047.59;;;14.96;100.00
9855;BME280;4966;48.112;9.282;2022-07-05T00:45:49;95052.94;;;14.88;100.00
9855;BME280;4966;48.112;9.282;2022-07-05T00:48:14;95046.66;;;14.88;100.00
9855;BME280;4966;48.112;9.282;2022-07-05T00:50:40;95044.00;;;14.92;100.00
9855;BME280;4966;48.112;9.282;2022-07-05T00:53:06;95050.91;;;14.70;100.00
9855;BME280;4966;48.112;9.282;2022-07-05T00:55:31;95045.88;;;14.72;100.00
9855;BME280;4966;48.112;9.282;2022-07-05T00:57:57;95046.31;;;14.74;100.00
9855;BME280;4966;48.112;9.282;2022-07-05T01:00:22;95044.91;;;14.80;100.00
9855;BME280;4966;48.112;9.282;2022-07-05T01:02:48;95048.22;;;14.89;100.00
9855;BME280;4966;48.112;9.282;2022-07-05T01:05:13;95040.28;;;14.84;100.00
9855;BME280;4966;48.112;9.282;2022-07-05T01:07:40;95042.63;;;14.66;100.00
9855;BME280;4966;48.112;9.282;2022-07-05T01:10:06;95041.84;;;14.65;100.00
9855;BME280;4966;48.112;9.282;2022-07-05T01:12:32;95049.50;;;14.60;100.00
9855;BME280;4966;48.112;9.282;2022-07-05T01:14:58;95046.50;;;14.65;100.00
9855;BME280;4966;48.112;9.282;2022-07-05T01:17:23;95050.22;;;14.73;100.00
9855;BME280;4966;48.112;9.282;2022-07-05T01:19:50;95043.94;;;14.72;99.85
9855;BME280;4966;48.112;9.282;2022-07-05T01:22:17;95049.34;;;14.68;99.13
9855;BME280;4966;48.112;9.282;2022-07-05T01:24:45;95054.66;;;14.61;99.94
9855;BME280;4966;48.112;9.282;2022-07-05T01:27:10;95053.75;;;14.57;100.00
9855;BME280;4966;48.112;9.282;2022-07-05T01:29:36;95053.84;;;14.61;100.00
9855;BME280;4966;48.112;9.282;2022-07-05T01:32:02;95056.94;;;14.59;100.00
9855;BME280;4966;48.112;9.282;2022-07-05T01:34:27;95050.75;;;14.62;100.00
9855;BME280;4966;48.112;9.282;2022-07-05T01:36:53;95054.81;;;14.68;100.00
9855;BME280;4966;48.112;9.282;2022-07-05T01:39:19;95054.47;;;14.70;100.00
9855;BME280;4966;48.112;9.282;2022-07-05T01:41:44;95053.66;;;14.70;100.00
9855;BME280;4966;48.112;9.282;2022-07-05T01:44:12;95049.50;;;14.76;99.36
9855;BME280;4966;48.112;9.282;2022-07-05T01:46:38;95047.22;;;14.62;99.45
9855;BME280;4966;48.112;9.282;2022-07-05T01:49:08;95054.28;;;14.47;99.11
9855;BME280;4966;48.112;9.282;2022-07-05T01:51:41;95050.63;;;14.43;99.51
9855;BME280;4966;48.112;9.282;2022-07-05T01:54:07;95048.97;;;14.22;100.00
9855;BME280;4966;48.112;9.282;2022-07-05T01:56:32;95045.88;;;14.24;100.00
9855;BME280;4966;48.112;9.282;2022-07-05T01:58:58;95041.19;;;14.24;100.00
9855;BME280;4966;48.112;9.282;2022-07-05T02:01:38;95045.06;;;14.23;100.00
9855;BME280;4966;48.112;9.282;2022-07-05T02:04:05;95037.66;;;14.24;100.00
9855;BME280;4966;48.112;9.282;2022-07-05T02:06:32;95041.03;;;14.33;100.00
9855;BME280;4966;48.112;9.282;2022-07-05T02:08:59;95035.03;;;14.28;100.00
9855;BME280;4966;48.112;9.282;2022-07-05T02:11:25;95045.06;;;14.23;100.00
9855;BME280;4966;48.112;9.282;2022-07-05T02:13:50;95044.38;;;14.26;100.00
9855;BME280;4966;48.112;9.282;2022-07-05T02:16:16;95042.44;;;14.27;100.00
9855;BME280;4966;48.112;9.282;2022-07-05T02:18:41;95044.19;;;14.35;99.61
9855;BME280;4966;48.112;9.282;2022-07-05T02:21:07;95038.53;;;14.28;100.00
9855;BME280;4966;48.112;9.282;2022-07-05T02:23:32;95036.06;;;14.39;99.73
9855;BME280;4966;48.112;9.282;2022-07-05T02:25:57;95029.56;;;14.28;99.78
9855;BME280;4966;48.112;9.282;2022-07-05T02:28:23;95040.22;;;14.17;100.00
9855;BME280;4966;48.112;9.282;2022-07-05T02:30:48;95040.91;;;14.14;100.00
9855;BME280;4966;48.112;9.282;2022-07-05T02:33:14;95042.34;;;14.23;100.00
9855;BME280;4966;48.112;9.282;2022-07-05T02:35:39;95039.59;;;14.23;100.00
9855;BME280;4966;48.112;9.282;2022-07-05T02:38:04;95041.00;;;14.17;100.00
9855;BME280;4966;48.112;9.282;2022-07-05T02:40:30;95046.03;;;14.31;99.66
9855;BME280;4966;48.112;9.282;2022-07-05T02:42:55;95040.75;;;14.22;99.80
9855;BME280;4966;48.112;9.282;2022-07-05T02:45:21;95049.31;;;14.21;99.12
9855;BME280;4966;48.112;9.282;2022-07-05T02:47:46;95051.88;;;14.14;99.05
9855;BME280;4966;48.112;9.282;2022-07-05T02:50:11;95050.53;;;14.08;99.65
9855;BME280;4966;48.112;9.282;2022-07-05T02:52:37;95048.16;;;14.06;98.16
9855;BME280;4966;48.112;9.282;2022-07-05T02:55:03;95044.88;;;14.00;98.97
9855;BME280;4966;48.112;9.282;2022-07-05T02:57:29;95045.03;;;13.92;99.97
9855;BME280;4966;48.112;9.282;2022-07-05T02:59:55;95055.19;;;13.91;100.00
9855;BME280;4966;48.112;9.282;2022-07-05T03:02:21;95046.47;;;14.01;100.00
9855;BME280;4966;48.112;9.282;2022-07-05T03:04:47;95043.13;;;14.08;100.00
9855;BME280;4966;48.112;9.282;2022-07-05T03:07:13;95044.44;;;14.14;100.00
9855;BME280;4966;48.112;9.282;2022-07-05T03:09:38;95048.97;;;14.22;100.00
9855;BME280;4966;48.112;9.282;2022-07-05T03:12:04;95052.75;;;14.18;100.00
9855;BME280;4966;48.112;9.282;2022-07-05T03:14:29;95054.50;;;14.10;100.00
9855;BME280;4966;48.112;9.282;2022-07-05T03:16:55;95050.09;;;14.21;100.00
9855;BME280;4966;48.112;9.282;2022-07-05T03:19:20;95058.22;;;14.18;100.00
9855;BME280;4966;48.112;9.282;2022-07-05T03:21:45;95058.75;;;14.23;100.00
9855;BME280;4966;48.112;9.282;2022-07-05T03:24:11;95059.66;;;14.28;100.00
9855;BME280;4966;48.112;9.282;2022-07-05T03:26:36;95065.38;;;14.38;100.00
9855;BME280;4966;48.112;9.282;2022-07-05T03:29:02;95068.84;;;14.35;100.00
9855;BME280;4966;48.112;9.282;2022-07-05T03:31:27;95071.94;;;14.50;99.99
9855;BME280;4966;48.112;9.282;2022-07-05T03:33:53;95074.44;;;14.55;99.03
9855;BME280;4966;48.112;9.282;2022-07-05T03:36:18;95073.31;;;14.43;99.24
9855;BME280;4966;48.112;9.282;2022-07-05T03:38:44;95075.63;;;14.25;100.00
9855;BME280;4966;48.112;9.282;2022-07-05T03:41:09;95082.66;;;14.26;100.00
9855;BME280;4966;48.112;9.282;2022-07-05T03:43:34;95081.28;;;14.33;100.00
9855;BME280;4966;48.112;9.282;2022-07-05T03:46:00;95081.13;;;14.57;99.63
9855;BME280;4966;48.112;9.282;2022-07-05T03:48:25;95088.44;;;14.53;98.70
9855;BME280;4966;48.112;9.282;2022-07-05T03:50:51;95087.72;;;14.40;99.01
9855;BME280;4966;48.112;9.282;2022-07-05T03:53:16;95085.78;;;14.41;99.46
9855;BME280;4966;48.112;9.282;2022-07-05T03:55:41;95086.06;;;14.52;98.80
9855;BME280;4966;48.112;9.282;2022-07-05T03:58:08;95092.09;;;14.57;99.42
9855;BME280;4966;48.112;9.282;2022-07-05T04:00:33;95099.59;;;14.60;99.09
9855;BME280;4966;48.112;9.282;2022-07-05T04:03:00;95105.31;;;14.55;99.88
9855;BME280;4966;48.112;9.282;2022-07-05T04:05:26;95104.81;;;14.65;100.00
9855;BME280;4966;48.112;9.282;2022-07-05T04:07:53;95095.88;;;14.68;100.00
9855;BME280;4966;48.112;9.282;2022-07-05T04:10:19;95107.72;;;14.73;100.00
9855;BME280;4966;48.112;9.282;2022-07-05T04:12:45;95096.84;;;14.76;100.00
9855;BME280;4966;48.112;9.282;2022-07-05T04:15:11;95101.25;;;14.97;99.74
9855;BME280;4966;48.112;9.282;2022-07-05T04:17:49;95107.41;;;15.09;97.66
9855;BME280;4966;48.112;9.282;2022-07-05T04:20:15;95106.97;;;15.07;97.29
9855;BME280;4966;48.112;9.282;2022-07-05T04:22:41;95100.03;;;14.94;98.72
9855;BME280;4966;48.112;9.282;2022-07-05T04:25:07;95103.03;;;14.89;100.00
9855;BME280;4966;48.112;9.282;2022-07-05T04:27:43;95100.38;;;15.08;99.93
9855;BME280;4966;48.112;9.282;2022-07-05T04:30:09;95100.53;;;15.16;100.00
9855;BME280;4966;48.112;9.282;2022-07-05T04:32:35;95103.31;;;15.35;100.00
9855;BME280;4966;48.112;9.282;2022-07-05T04:35:00;95107.34;;;15.41;100.00
9855;BME280;4966;48.112;9.282;2022-07-05T04:37:26;95104.22;;;15.59;97.85
9855;BME280;4966;48.112;9.282;2022-07-05T04:39:52;95102.75;;;15.65;97.75
9855;BME280;4966;48.112;9.282;2022-07-05T04:42:17;95096.34;;;15.57;98.38
9855;BME280;4966;48.112;9.282;2022-07-05T04:44:42;95097.09;;;15.73;98.25
9855;BME280;4966;48.112;9.282;2022-07-05T04:47:08;95103.38;;;15.74;98.10
9855;BME280;4966;48.112;9.282;2022-07-05T04:49:33;95105.16;;;15.66;98.09
9855;BME280;4966;48.112;9.282;2022-07-05T04:51:59;95101.56;;;15.82;98.93
9855;BME280;4966;48.112;9.282;2022-07-05T04:54:24;95105.91;;;16.02;98.27
9855;BME280;4966;48.112;9.282;2022-07-05T04:56:49;95098.72;;;16.17;98.01
9855;BME280;4966;48.112;9.282;2022-07-05T04:59:15;95101.22;;;16.45;95.30
9855;BME280;4966;48.112;9.282;2022-07-05T05:01:40;95106.28;;;16.43;95.78
9855;BME280;4966;48.112;9.282;2022-07-05T05:04:06;95098.78;;;16.40;95.33
9855;BME280;4966;48.112;9.282;2022-07-05T05:06:31;95092.22;;;16.48;95.17
9855;BME280;4966;48.112;9.282;2022-07-05T05:08:56;95095.59;;;16.61;95.19
9855;BME280;4966;48.112;9.282;2022-07-05T05:11:22;95097.44;;;16.76;94.34
9855;BME280;4966;48.112;9.282;2022-07-05T05:13:47;95091.69;;;16.62;95.11
9855;BME280;4966;48.112;9.282;2022-07-05T05:16:12;95104.13;;;16.56;95.48
9855;BME280;4966;48.112;9.282;2022-07-05T05:18:38;95097.97;;;16.63;96.82
9855;BME280;4966;48.112;9.282;2022-07-05T05:21:03;95101.84;;;16.81;97.33
9855;BME280;4966;48.112;9.282;2022-07-05T05:23:29;95103.13;;;16.87;96.40
9855;BME280;4966;48.112;9.282;2022-07-05T05:25:54;95101.03;;;17.04;96.12
9855;BME280;4966;48.112;9.282;2022-07-05T05:28:20;95104.97;;;17.06;95.42
9855;BME280;4966;48.112;9.282;2022-07-05T05:30:46;95105.72;;;17.03;94.81
9855;BME280;4966;48.112;9.282;2022-07-05T05:33:12;95109.84;;;17.16;95.30
9855;BME280;4966;48.112;9.282;2022-07-05T05:35:38;95116.31;;;17.28;95.58
9855;BME280;4966;48.112;9.282;2022-07-05T05:38:03;95127.19;;;17.47;96.64
9855;BME280;4966;48.112;9.282;2022-07-05T05:40:29;95126.44;;;17.77;96.37
9855;BME280;4966;48.112;9.282;2022-07-05T05:42:55;95126.81;;;18.05;92.67
9855;BME280;4966;48.112;9.282;2022-07-05T05:45:22;95132.50;;;18.20;91.65
9855;BME280;4966;48.112;9.282;2022-07-05T05:47:52;95137.81;;;18.39;91.57
9855;BME280;4966;48.112;9.282;2022-07-05T05:50:35;95139.59;;;18.58;88.06
9855;BME280;4966;48.112;9.282;2022-07-05T05:53:01;95136.66;;;18.78;86.28
9855;BME280;4966;48.112;9.282;2022-07-05T05:55:29;95130.81;;;18.83;86.24
9855;BME280;4966;48.112;9.282;2022-07-05T05:57:54;95145.84;;;18.55;87.20
9855;BME280;4966;48.112;9.282;2022-07-05T06:00:22;95151.34;;;18.52;88.31
9855;BME280;4966;48.112;9.282;2022-07-05T06:02:49;95148.38;;;18.34;89.38
9855;BME280;4966;48.112;9.282;2022-07-05T06:05:15;95142.69;;;18.19;90.75
9855;BME280;4966;48.112;9.282;2022-07-05T06:07:55;95150.59;;;18.21;91.66
9855;BME280;4966;48.112;9.282;2022-07-05T06:12:49;95151.34;;;18.52;90.64
9855;BME280;4966;48.112;9.282;2022-07-05T06:15:15;95156.53;;;18.60;91.12
9855;BME280;4966;48.112;9.282;2022-07-05T06:17:41;95156.75;;;18.44;88.79
9855;BME280;4966;48.112;9.282;2022-07-05T06:20:08;95158.03;;;18.54;89.21
9855;BME280;4966;48.112;9.282;2022-07-05T06:22:34;95162.84;;;18.61;88.98
9855;BME280;4966;48.112;9.282;2022-07-05T06:25:00;95165.59;;;18.61;88.15
9855;BME280;4966;48.112;9.282;2022-07-05T06:27:25;95164.41;;;18.58;84.63
9855;BME280;4966;48.112;9.282;2022-07-05T06:29:50;95160.16;;;18.68;84.93
9855;BME280;4966;48.112;9.282;2022-07-05T06:32:16;95158.72;;;18.78;84.50
9855;BME280;4966;48.112;9.282;2022-07-05T06:34:42;95155.16;;;18.77;84.44
9855;BME280;4966;48.112;9.282;2022-07-05T06:37:07;95159.16;;;18.83;90.13
9855;BME280;4966;48.112;9.282;2022-07-05T06:39:33;95155.50;;;19.17;89.81
9855;BME280;4966;48.112;9.282;2022-07-05T06:42:00;95157.13;;;19.21;84.73
9855;BME280;4966;48.112;9.282;2022-07-05T06:44:25;95167.78;;;19.23;83.20
9855;BME280;4966;48.112;9.282;2022-07-05T06:46:50;95162.81;;;19.43;82.63
9855;BME280;4966;48.112;9.282;2022-07-05T06:49:16;95164.97;;;19.16;89.22
9855;BME280;4966;48.112;9.282;2022-07-05T06:51:41;95155.00;;;19.52;85.43
9855;BME280;4966;48.112;9.282;2022-07-05T06:54:07;95155.34;;;19.47;81.76
9855;BME280;4966;48.112;9.282;2022-07-05T06:56:32;95163.75;;;19.65;78.09
9855;BME280;4966;48.112;9.282;2022-07-05T06:58:57;95165.88;;;19.86;83.29
9855;BME280;4966;48.112;9.282;2022-07-05T07:01:23;95164.75;;;20.01;85.09
9855;BME280;4966;48.112;9.282;2022-07-05T07:03:48;95168.81;;;20.22;84.38
9855;BME280;4966;48.112;9.282;2022-07-05T07:06:14;95166.47;;;20.31;82.15
9855;BME280;4966;48.112;9.282;2022-07-05T07:08:39;95164.97;;;20.48;83.60
9855;BME280;4966;48.112;9.282;2022-07-05T07:11:23;95159.50;;;20.62;85.36
9855;BME280;4966;48.112;9.282;2022-07-05T07:13:49;95165.44;;;20.75;82.21
9855;BME280;4966;48.112;9.282;2022-07-05T07:16:14;95169.69;;;20.40;80.78
9855;BME280;4966;48.112;9.282;2022-07-05T07:18:39;95176.88;;;20.66;78.95
9855;BME280;4966;48.112;9.282;2022-07-05T07:21:05;95175.31;;;20.65;79.32
9855;BME280;4966;48.112;9.282;2022-07-05T07:23:30;95176.00;;;20.51;78.82
9855;BME280;4966;48.112;9.282;2022-07-05T07:25:55;95176.16;;;20.91;81.44
9855;BME280;4966;48.112;9.282;2022-07-05T07:28:21;95171.38;;;20.77;70.96
9855;BME280;4966;48.112;9.282;2022-07-05T07:30:46;95175.38;;;20.90;73.17
9855;BME280;4966;48.112;9.282;2022-07-05T07:33:12;95174.22;;;21.20;73.99
9855;BME280;4966;48.112;9.282;2022-07-05T07:35:37;95178.94;;;21.37;75.75
9855;BME280;4966;48.112;9.282;2022-07-05T07:38:02;95182.91;;;21.61;73.45
9855;BME280;4966;48.112;9.282;2022-07-05T07:40:28;95178.16;;;21.26;60.06
9855;BME280;4966;48.112;9.282;2022-07-05T07:42:53;95179.78;;;21.41;56.55
9855;BME280;4966;48.112;9.282;2022-07-05T07:45:19;95179.34;;;21.21;62.84
9855;BME280;4966;48.112;9.282;2022-07-05T07:47:44;95182.53;;;21.41;64.59
9855;BME280;4966;48.112;9.282;2022-07-05T07:50:10;95184.06;;;21.03;55.78
9855;BME280;4966;48.112;9.282;2022-07-05T07:52:35;95198.72;;;21.07;57.15
9855;BME280;4966;48.112;9.282;2022-07-05T07:55:04;95189.59;;;21.07;54.16
9855;BME280;4966;48.112;9.282;2022-07-05T07:57:29;95187.69;;;21.54;59.89
9855;BME280;4966;48.112;9.282;2022-07-05T07:59:55;95180.56;;;21.53;54.79
9855;BME280;4966;48.112;9.282;2022-07-05T08:02:20;95186.09;;;21.81;56.44
9855;BME280;4966;48.112;9.282;2022-07-05T08:04:48;95187.28;;;21.77;52.78
9855;BME280;4966;48.112;9.282;2022-07-05T08:07:14;95192.78;;;21.87;56.44
9855;BME280;4966;48.112;9.282;2022-07-05T08:09:39;95184.09;;;21.78;41.33
9855;BME280;4966;48.112;9.282;2022-07-05T08:12:05;95188.75;;;22.14;49.08
9855;BME280;4966;48.112;9.282;2022-07-05T08:14:31;95191.53;;;22.24;49.34
9855;BME280;4966;48.112;9.282;2022-07-05T08:16:57;95193.88;;;22.19;52.42
9855;BME280;4966;48.112;9.282;2022-07-05T08:19:23;95191.13;;;22.29;42.63
9855;BME280;4966;48.112;9.282;2022-07-05T08:22:08;95190.25;;;22.43;46.93
9855;BME280;4966;48.112;9.282;2022-07-05T08:24:35;95189.03;;;22.55;53.82
9855;BME280;4966;48.112;9.282;2022-07-05T08:27:00;95187.81;;;22.63;48.83
9855;BME280;4966;48.112;9.282;2022-07-05T08:29:26;95189.41;;;22.57;48.92
9855;BME280;4966;48.112;9.282;2022-07-05T08:31:52;95184.66;;;22.58;46.46
9855;BME280;4966;48.112;9.282;2022-07-05T08:34:17;95182.19;;;22.74;49.34
9855;BME280;4966;48.112;9.282;2022-07-05T08:36:44;95183.69;;;22.93;46.84
9855;BME280;4966;48.112;9.282;2022-07-05T08:39:10;95175.34;;;23.00;40.74
9855;BME280;4966;48.112;9.282;2022-07-05T08:41:37;95178.47;;;23.09;42.77
9855;BME280;4966;48.112;9.282;2022-07-05T08:44:04;95183.06;;;22.64;45.58
9855;BME280;4966;48.112;9.282;2022-07-05T08:46:31;95177.59;;;22.46;45.21
9855;BME280;4966;48.112;9.282;2022-07-05T08:48:59;95183.59;;;22.19;43.54
9855;BME280;4966;48.112;9.282;2022-07-05T08:51:27;95173.59;;;22.50;44.18
9855;BME280;4966;48.112;9.282;2022-07-05T08:53:53;95175.28;;;22.26;43.61
9855;BME280;4966;48.112;9.282;2022-07-05T08:56:20;95175.25;;;22.37;45.78
9855;BME280;4966;48.112;9.282;2022-07-05T08:58:46;95185.13;;;22.42;40.89
9855;BME280;4966;48.112;9.282;2022-07-05T09:01:12;95177.31;;;22.96;41.77
9855;BME280;4966;48.112;9.282;2022-07-05T09:03:47;95172.91;;;23.09;41.88
9855;BME280;4966;48.112;9.282;2022-07-05T09:06:16;95172.25;;;22.84;42.00
9855;BME280;4966;48.112;9.282;2022-07-05T09:08:42;95169.47;;;23.43;40.57
9855;BME280;4966;48.112;9.282;2022-07-05T09:11:12;95176.69;;;23.37;40.80
9855;BME280;4966;48.112;9.282;2022-07-05T09:13:40;95170.84;;;23.21;40.63
9855;BME280;4966;48.112;9.282;2022-07-05T09:16:07;95173.16;;;23.29;40.10
9855;BME280;4966;48.112;9.282;2022-07-05T09:18:53;95177.34;;;23.48;38.79
9855;BME280;4966;48.112;9.282;2022-07-05T09:21:24;95180.19;;;23.45;37.92
9855;BME280;4966;48.112;9.282;2022-07-05T09:23:58;95178.13;;;23.52;36.52
9855;BME280;4966;48.112;9.282;2022-07-05T09:26:35;95180.28;;;23.79;37.27
9855;BME280;4966;48.112;9.282;2022-07-05T09:29:03;95179.47;;;23.82;38.44
9855;BME280;4966;48.112;9.282;2022-07-05T09:31:30;95183.41;;;23.85;38.30
9855;BME280;4966;48.112;9.282;2022-07-05T09:34:10;95180.00;;;24.11;40.33
9855;BME280;4966;48.112;9.282;2022-07-05T09:36:51;95184.81;;;24.04;38.29
9855;BME280;4966;48.112;9.282;2022-07-05T09:44:52;95186.78;;;24.07;38.49
9855;BME280;4966;48.112;9.282;2022-07-05T09:47:28;95180.91;;;23.97;39.55
9855;BME280;4966;48.112;9.282;2022-07-05T09:49:55;95180.16;;;24.31;37.26
9855;BME280;4966;48.112;9.282;2022-07-05T09:52:28;95182.03;;;24.76;35.50
9855;BME280;4966;48.112;9.282;2022-07-05T09:55:04;95187.69;;;25.27;35.09
9855;BME280;4966;48.112;9.282;2022-07-05T09:57:31;95184.63;;;25.44;34.23
9855;BME280;4966;48.112;9.282;2022-07-05T10:00:02;95190.97;;;25.68;39.63
9855;BME280;4966;48.112;9.282;2022-07-05T10:05:25;95189.63;;;26.24;33.44
9855;BME280;4966;48.112;9.282;2022-07-05T10:07:53;95188.50;;;25.98;31.55
9855;BME280;4966;48.112;9.282;2022-07-05T10:10:22;95185.72;;;25.74;33.74
9855;BME280;4966;48.112;9.282;2022-07-05T10:12:50;95194.88;;;25.24;33.89
9855;BME280;4966;48.112;9.282;2022-07-05T10:15:20;95189.22;;;25.31;33.43
9855;BME280;4966;48.112;9.282;2022-07-05T10:17:52;95187.00;;;25.70;34.88
9855;BME280;4966;48.112;9.282;2022-07-05T10:23:06;95182.66;;;26.12;32.30
9855;BME280;4966;48.112;9.282;2022-07-05T10:25:32;95175.50;;;26.55;33.20
9855;BME280;4966;48.112;9.282;2022-07-05T10:27:58;95180.22;;;26.58;33.15
9855;BME280;4966;48.112;9.282;2022-07-05T10:30:24;95181.63;;;26.86;31.38
9855;BME280;4966;48.112;9.282;2022-07-05T10:32:50;95165.56;;;26.54;31.32
9855;BME280;4966;48.112;9.282;2022-07-05T10:35:17;95176.63;;;26.37;32.17
9855;BME280;4966;48.112;9.282;2022-07-05T10:37:43;95174.88;;;25.56;34.01
9855;BME280;4966;48.112;9.282;2022-07-05T10:40:10;95170.50;;;26.02;32.27
9855;BME280;4966;48.112;9.282;2022-07-05T10:43:11;95163.50;;;25.94;32.63
9855;BME280;4966;48.112;9.282;2022-07-05T10:45:47;95178.50;;;25.53;36.05
9855;BME280;4966;48.112;9.282;2022-07-05T10:48:17;95174.13;;;25.52;34.22
9855;BME280;4966;48.112;9.282;2022-07-05T10:56:12;95177.53;;;26.10;32.35
9855;BME280;4966;48.112;9.282;2022-07-05T10:58:38;95185.72;;;25.51;30.89
9855;BME280;4966;48.112;9.282;2022-07-05T11:04:11;95180.06;;;28.49;27.97
9855;BME280;4966;48.112;9.282;2022-07-05T11:13:58;95161.56;;;33.92;23.09
9855;BME280;4966;48.112;9.282;2022-07-05T11:16:25;95166.34;;;32.08;23.38
9855;BME280;4966;48.112;9.282;2022-07-05T11:19:08;95176.66;;;29.51;26.60
9855;BME280;4966;48.112;9.282;2022-07-05T11:21:35;95176.94;;;28.89;27.96
9855;BME280;4966;48.112;9.282;2022-07-05T11:24:26;95184.34;;;26.89;29.14
9855;BME280;4966;48.112;9.282;2022-07-05T11:26:53;95177.63;;;27.23;28.93
9855;BME280;4966;48.112;9.282;2022-07-05T11:29:50;95173.03;;;26.97;31.71
9855;BME280;4966;48.112;9.282;2022-07-05T11:32:18;95176.25;;;26.95;32.04
9855;BME280;4966;48.112;9.282;2022-07-05T11:34:49;95176.44;;;26.68;31.16
9855;BME280;4966;48.112;9.282;2022-07-05T11:42:56;95162.91;;;34.68;20.17
9855;BME280;4966;48.112;9.282;2022-07-05T11:45:21;95163.09;;;35.54;18.35
9855;BME280;4966;48.112;9.282;2022-07-05T11:47:47;95158.53;;;36.53;19.28
9855;BME280;4966;48.112;9.282;2022-07-05T11:50:13;95143.69;;;37.74;17.10
9855;BME280;4966;48.112;9.282;2022-07-05T11:52:39;95147.25;;;37.06;17.67
9855;BME280;4966;48.112;9.282;2022-07-05T11:55:07;95147.41;;;34.25;19.61
9855;BME280;4966;48.112;9.282;2022-07-05T11:57:33;95150.50;;;31.74;22.88
9855;BME280;4966;48.112;9.282;2022-07-05T11:59:59;95153.69;;;32.13;23.76
9855;BME280;4966;48.112;9.282;2022-07-05T12:02:24;95152.31;;;32.54;22.01
9855;BME280;4966;48.112;9.282;2022-07-05T12:04:54;95147.47;;;32.09;22.88
9855;BME280;4966;48.112;9.282;2022-07-05T12:07:30;95143.19;;;33.96;19.50
9855;BME280;4966;48.112;9.282;2022-07-05T12:09:56;95142.78;;;35.70;17.34
9855;BME280;4966;48.112;9.282;2022-07-05T12:12:41;95132.19;;;36.47;16.87
9855;BME280;4966;48.112;9.282;2022-07-05T12:15:21;95131.28;;;39.31;17.98
9855;BME280;4966;48.112;9.282;2022-07-05T12:17:48;95128.38;;;38.80;15.65
9855;BME280;4966;48.112;9.282;2022-07-05T12:20:20;95124.78;;;39.87;14.49
9855;BME280;4966;48.112;9.282;2022-07-05T12:22:47;95125.19;;;41.49;14.06
9855;BME280;4966;48.112;9.282;2022-07-05T12:25:18;95120.66;;;40.99;14.58
9855;BME280;4966;48.112;9.282;2022-07-05T12:27:44;95116.44;;;38.59;14.58
9855;BME280;4966;48.112;9.282;2022-07-05T12:30:11;95119.34;;;38.05;15.49
9855;BME280;4966;48.112;9.282;2022-07-05T12:35:44;95119.13;;;33.86;20.82
9855;BME280;4966;48.112;9.282;2022-07-05T12:38:12;95120.91;;;32.98;21.93
9855;BME280;4966;48.112;9.282;2022-07-05T12:40:41;95123.34;;;34.68;20.10
9855;BME280;4966;48.112;9.282;2022-07-05T12:43:13;95118.97;;;32.34;21.14
9855;BME280;4966;48.112;9.282;2022-07-05T12:45:41;95119.94;;;30.29;24.74
9855;BME280;4966;48.112;9.282;2022-07-05T12:48:08;95123.13;;;31.65;24.22
9855;BME280;4966;48.112;9.282;2022-07-05T12:50:48;95118.03;;;34.46;20.45
9855;BME280;4966;48.112;9.282;2022-07-05T12:53:14;95121.22;;;36.81;17.42
9855;BME280;4966;48.112;9.282;2022-07-05T12:56:01;95115.84;;;37.09;15.80
9855;BME280;4966;48.112;9.282;2022-07-05T12:58:49;95112.91;;;39.21;14.27
9855;BME280;4966;48.112;9.282;2022-07-05T13:04:04;95096.50;;;41.91;12.64
9855;BME280;4966;48.112;9.282;2022-07-05T13:09:14;95098.72;;;42.03;13.57
9855;BME280;4966;48.112;9.282;2022-07-05T13:11:39;95100.75;;;42.27;13.05
9855;BME280;4966;48.112;9.282;2022-07-05T13:14:05;95104.41;;;40.88;12.78
9855;BME280;4966;48.112;9.282;2022-07-05T13:16:31;95105.16;;;39.55;14.02
9855;BME280;4966;48.112;9.282;2022-07-05T13:19:12;95101.28;;;39.30;14.75
9855;BME280;4966;48.112;9.282;2022-07-05T13:21:38;95094.13;;;37.06;17.07
9855;BME280;4966;48.112;9.282;2022-07-05T13:24:04;95099.47;;;34.69;19.38
9855;BME280;4966;48.112;9.282;2022-07-05T13:26:29;95094.97;;;37.12;16.22
9855;BME280;4966;48.112;9.282;2022-07-05T13:28:55;95100.50;;;39.07;13.20
9855;BME280;4966;48.112;9.282;2022-07-05T13:31:20;95100.69;;;37.98;13.99
9855;BME280;4966;48.112;9.282;2022-07-05T13:33:46;95088.50;;;38.52;14.31
9855;BME280;4966;48.112;9.282;2022-07-05T13:36:11;95096.97;;;36.80;14.71
9855;BME280;4966;48.112;9.282;2022-07-05T13:38:36;95095.78;;;38.76;12.70
9855;BME280;4966;48.112;9.282;2022-07-05T13:41:02;95086.28;;;41.16;12.23
9855;BME280;4966;48.112;9.282;2022-07-05T13:43:27;95090.75;;;41.72;12.68
9855;BME280;4966;48.112;9.282;2022-07-05T13:45:53;95099.28;;;41.17;12.87
9855;BME280;4966;48.112;9.282;2022-07-05T13:48:18;95093.34;;;41.39;12.48
9855;BME280;4966;48.112;9.282;2022-07-05T13:50:43;95088.03;;;42.85;12.29
9855;BME280;4966;48.112;9.282;2022-07-05T13:53:09;95091.34;;;37.86;13.19
9855;BME280;4966;48.112;9.282;2022-07-05T13:55:34;95089.47;;;37.35;15.78
9855;BME280;4966;48.112;9.282;2022-07-05T13:58:00;95090.03;;;37.07;15.01
9855;BME280;4966;48.112;9.282;2022-07-05T14:00:25;95090.44;;;40.79;13.41
9855;BME280;4966;48.112;9.282;2022-07-05T14:02:51;95088.06;;;42.04;12.32
9855;BME280;4966;48.112;9.282;2022-07-05T14:05:16;95088.31;;;42.25;12.47